Breu Branco, Brazil
Current Conditions -  °F | °C
As of 5:00 PM on Sunday 21 Dec 2014 (Local Time) from SBMA Reporting Station
Few Clouds Few Clouds  
Wind Chill: 90°   Ceiling: Unl
Heat Index: 98°   Visibility: 6mi
Dew Point: 73°   Wind: 3mph
Humidity: 59%   Direction: 190°S
Pressure: 29.77"   Gusts: NA
Location:  4.07°S, 49.64°W
Report Text: SBMA 212000Z 19003KT 9999 FEW019 32/23 Q1008
Loading
Personal Weather Stations






























Interactive Weather Map New forecast layout! Learn more

10-Day Weather Forecast

Advertisements
Track Severe Weather on mobile